sensor_id;sensor_type;location;lat;lon;timestamp;pressure;altitude;pressure_sealevel;temperature;humidity
22580;BME280;11456;47.030;15.396;2022-08-21T00:01:50;97199.75;;;21.08;57.28
22580;BME280;11456;47.030;15.396;2022-08-21T00:04:17;97195.66;;;21.17;57.94
22580;BME280;11456;47.030;15.396;2022-08-21T00:06:48;97201.28;;;21.04;58.27
22580;BME280;11456;47.030;15.396;2022-08-21T00:09:14;97192.97;;;21.10;57.43
22580;BME280;11456;47.030;15.396;2022-08-21T00:11:41;97186.13;;;21.19;54.97
22580;BME280;11456;47.030;15.396;2022-08-21T00:14:09;97178.81;;;21.32;54.43
22580;BME280;11456;47.030;15.396;2022-08-21T00:16:35;97189.47;;;21.51;53.73
22580;BME280;11456;47.030;15.396;2022-08-21T00:19:02;97183.22;;;21.14;55.26
22580;BME280;11456;47.030;15.396;2022-08-21T00:21:29;97175.72;;;21.10;55.82
22580;BME280;11456;47.030;15.396;2022-08-21T00:23:56;97178.72;;;21.38;55.89
22580;BME280;11456;47.030;15.396;2022-08-21T00:26:22;97179.47;;;21.45;53.95
22580;BME280;11456;47.030;15.396;2022-08-21T00:28:49;97178.00;;;21.31;54.21
22580;BME280;11456;47.030;15.396;2022-08-21T00:31:16;97182.53;;;21.37;54.61
22580;BME280;11456;47.030;15.396;2022-08-21T00:33:43;97178.53;;;21.22;55.16
22580;BME280;11456;47.030;15.396;2022-08-21T00:36:10;97177.06;;;21.01;56.41
22580;BME280;11456;47.030;15.396;2022-08-21T00:38:37;97174.97;;;21.03;57.24
22580;BME280;11456;47.030;15.396;2022-08-21T00:41:05;97173.91;;;21.22;56.39
22580;BME280;11456;47.030;15.396;2022-08-21T00:43:53;97177.06;;;21.19;56.37
22580;BME280;11456;47.030;15.396;2022-08-21T00:46:20;97169.34;;;21.16;56.58
22580;BME280;11456;47.030;15.396;2022-08-21T00:48:53;97169.56;;;20.96;57.33
22580;BME280;11456;47.030;15.396;2022-08-21T00:51:38;97171.25;;;20.79;57.98
22580;BME280;11456;47.030;15.396;2022-08-21T00:54:06;97157.78;;;20.96;57.55
22580;BME280;11456;47.030;15.396;2022-08-21T00:56:43;97161.22;;;20.91;57.58
22580;BME280;11456;47.030;15.396;2022-08-21T00:59:10;97158.41;;;20.79;58.39
22580;BME280;11456;47.030;15.396;2022-08-21T01:01:37;97160.06;;;20.80;57.61
22580;BME280;11456;47.030;15.396;2022-08-21T01:04:04;97165.09;;;20.84;57.10
22580;BME280;11456;47.030;15.396;2022-08-21T01:06:30;97157.00;;;21.25;56.05
22580;BME280;11456;47.030;15.396;2022-08-21T01:08:57;97162.94;;;21.22;53.86
22580;BME280;11456;47.030;15.396;2022-08-21T01:11:24;97154.91;;;21.39;53.98
22580;BME280;11456;47.030;15.396;2022-08-21T01:13:50;97161.81;;;21.41;52.15
22580;BME280;11456;47.030;15.396;2022-08-21T01:16:18;97154.69;;;21.52;52.73
22580;BME280;11456;47.030;15.396;2022-08-21T01:18:46;97157.34;;;21.58;51.97
22580;BME280;11456;47.030;15.396;2022-08-21T01:21:18;97153.63;;;21.53;51.70
22580;BME280;11456;47.030;15.396;2022-08-21T01:23:47;97156.75;;;21.56;51.04
22580;BME280;11456;47.030;15.396;2022-08-21T01:26:15;97149.00;;;21.53;51.41
22580;BME280;11456;47.030;15.396;2022-08-21T01:28:47;97154.72;;;21.64;51.50
22580;BME280;11456;47.030;15.396;2022-08-21T01:31:15;97140.16;;;21.51;51.29
22580;BME280;11456;47.030;15.396;2022-08-21T01:33:51;97140.75;;;21.95;49.99
22580;BME280;11456;47.030;15.396;2022-08-21T01:36:18;97142.69;;;22.29;48.56
22580;BME280;11456;47.030;15.396;2022-08-21T01:38:45;97145.56;;;22.11;48.75
22580;BME280;11456;47.030;15.396;2022-08-21T01:41:13;97146.97;;;22.02;48.66
22580;BME280;11456;47.030;15.396;2022-08-21T01:43:41;97146.88;;;22.20;48.96
22580;BME280;11456;47.030;15.396;2022-08-21T01:46:07;97136.84;;;22.03;49.24
22580;BME280;11456;47.030;15.396;2022-08-21T01:48:34;97147.81;;;22.37;48.85
22580;BME280;11456;47.030;15.396;2022-08-21T01:51:00;97144.09;;;21.97;48.76
22580;BME280;11456;47.030;15.396;2022-08-21T01:53:27;97138.38;;;22.22;49.06
22580;BME280;11456;47.030;15.396;2022-08-21T01:55:58;97133.22;;;21.90;49.39
22580;BME280;11456;47.030;15.396;2022-08-21T01:58:25;97127.19;;;22.47;47.95
22580;BME280;11456;47.030;15.396;2022-08-21T02:00:52;97128.50;;;22.32;47.63
22580;BME280;11456;47.030;15.396;2022-08-21T02:03:19;97121.38;;;22.20;47.72
22580;BME280;11456;47.030;15.396;2022-08-21T02:06:01;97124.44;;;22.23;47.61
22580;BME280;11456;47.030;15.396;2022-08-21T02:08:28;97118.81;;;22.42;47.18
22580;BME280;11456;47.030;15.396;2022-08-21T02:10:55;97118.50;;;22.15;47.81
22580;BME280;11456;47.030;15.396;2022-08-21T02:13:21;97113.13;;;22.31;47.71
22580;BME280;11456;47.030;15.396;2022-08-21T02:15:48;97116.56;;;22.38;47.52
22580;BME280;11456;47.030;15.396;2022-08-21T02:18:14;97117.16;;;22.17;48.42
22580;BME280;11456;47.030;15.396;2022-08-21T02:20:44;97115.00;;;21.96;48.54
22580;BME280;11456;47.030;15.396;2022-08-21T02:23:11;97111.47;;;21.95;48.77
22580;BME280;11456;47.030;15.396;2022-08-21T02:25:37;97111.19;;;21.97;49.11
22580;BME280;11456;47.030;15.396;2022-08-21T02:28:05;97097.34;;;21.92;49.00
22580;BME280;11456;47.030;15.396;2022-08-21T02:30:34;97103.31;;;21.89;48.88
22580;BME280;11456;47.030;15.396;2022-08-21T02:33:01;97097.47;;;21.85;49.12
22580;BME280;11456;47.030;15.396;2022-08-21T02:35:27;97097.84;;;21.89;49.10
22580;BME280;11456;47.030;15.396;2022-08-21T02:37:56;97098.63;;;21.78;49.80
22580;BME280;11456;47.030;15.396;2022-08-21T02:40:25;97091.13;;;21.85;49.08
22580;BME280;11456;47.030;15.396;2022-08-21T02:42:52;97098.41;;;21.79;49.99
22580;BME280;11456;47.030;15.396;2022-08-21T02:45:19;97084.94;;;21.78;49.86
22580;BME280;11456;47.030;15.396;2022-08-21T02:47:59;97086.59;;;21.79;49.49
22580;BME280;11456;47.030;15.396;2022-08-21T02:50:39;97091.63;;;21.82;48.95
22580;BME280;11456;47.030;15.396;2022-08-21T02:53:07;97087.66;;;21.78;49.41
22580;BME280;11456;47.030;15.396;2022-08-21T02:55:34;97085.31;;;21.70;49.39
22580;BME280;11456;47.030;15.396;2022-08-21T02:58:02;97092.19;;;21.72;49.35
22580;BME280;11456;47.030;15.396;2022-08-21T03:00:29;97094.09;;;21.72;49.84
22580;BME280;11456;47.030;15.396;2022-08-21T03:02:56;97092.31;;;21.66;50.69
22580;BME280;11456;47.030;15.396;2022-08-21T03:05:24;97095.88;;;21.54;51.15
22580;BME280;11456;47.030;15.396;2022-08-21T03:07:51;97099.56;;;21.48;51.59
22580;BME280;11456;47.030;15.396;2022-08-21T03:10:19;97093.47;;;21.46;51.72
22580;BME280;11456;47.030;15.396;2022-08-21T03:12:46;97101.19;;;21.38;52.69
22580;BME280;11456;47.030;15.396;2022-08-21T03:15:14;97095.66;;;21.26;51.51
22580;BME280;11456;47.030;15.396;2022-08-21T03:17:41;97085.84;;;21.48;50.47
22580;BME280;11456;47.030;15.396;2022-08-21T03:20:07;97087.41;;;21.56;49.84
22580;BME280;11456;47.030;15.396;2022-08-21T03:22:34;97086.03;;;22.23;47.67
22580;BME280;11456;47.030;15.396;2022-08-21T03:25:01;97089.03;;;22.22;47.52
22580;BME280;11456;47.030;15.396;2022-08-21T03:27:31;97084.81;;;21.84;48.21
22580;BME280;11456;47.030;15.396;2022-08-21T03:30:01;97092.31;;;21.66;48.73
22580;BME280;11456;47.030;15.396;2022-08-21T03:32:27;97087.09;;;21.76;48.43
22580;BME280;11456;47.030;15.396;2022-08-21T03:34:55;97089.00;;;21.87;47.41
22580;BME280;11456;47.030;15.396;2022-08-21T03:37:21;97097.13;;;21.82;47.86
22580;BME280;11456;47.030;15.396;2022-08-21T03:39:48;97090.91;;;21.75;48.09
22580;BME280;11456;47.030;15.396;2022-08-21T03:42:14;97101.75;;;21.70;48.55
22580;BME280;11456;47.030;15.396;2022-08-21T03:44:41;97101.97;;;21.80;48.19
22580;BME280;11456;47.030;15.396;2022-08-21T03:47:08;97089.72;;;21.82;48.03
22580;BME280;11456;47.030;15.396;2022-08-21T03:49:34;97098.03;;;21.64;48.60
22580;BME280;11456;47.030;15.396;2022-08-21T03:52:01;97100.81;;;21.87;48.11
22580;BME280;11456;47.030;15.396;2022-08-21T03:54:27;97106.72;;;21.49;49.10
22580;BME280;11456;47.030;15.396;2022-08-21T03:56:54;97104.69;;;20.97;51.66
22580;BME280;11456;47.030;15.396;2022-08-21T03:59:21;97106.25;;;20.74;52.20
22580;BME280;11456;47.030;15.396;2022-08-21T04:01:54;97101.25;;;20.71;52.88
22580;BME280;11456;47.030;15.396;2022-08-21T04:04:21;97100.28;;;20.23;54.65
22580;BME280;11456;47.030;15.396;2022-08-21T04:06:48;97107.78;;;20.34;54.79
22580;BME280;11456;47.030;15.396;2022-08-21T04:09:16;97104.00;;;20.10;55.78
22580;BME280;11456;47.030;15.396;2022-08-21T04:11:43;97104.66;;;19.87;56.66
22580;BME280;11456;47.030;15.396;2022-08-21T04:14:09;97105.31;;;20.08;56.15
22580;BME280;11456;47.030;15.396;2022-08-21T04:16:36;97110.09;;;20.30;55.45
22580;BME280;11456;47.030;15.396;2022-08-21T04:19:02;97104.69;;;20.24;55.00
22580;BME280;11456;47.030;15.396;2022-08-21T04:21:29;97108.31;;;20.42;54.67
22580;BME280;11456;47.030;15.396;2022-08-21T04:23:56;97114.94;;;20.10;57.07
22580;BME280;11456;47.030;15.396;2022-08-21T04:26:22;97111.88;;;20.00;57.08
22580;BME280;11456;47.030;15.396;2022-08-21T04:28:49;97098.47;;;20.17;56.69
22580;BME280;11456;47.030;15.396;2022-08-21T04:31:16;97100.78;;;20.38;56.13
22580;BME280;11456;47.030;15.396;2022-08-21T04:33:42;97093.34;;;20.63;53.72
22580;BME280;11456;47.030;15.396;2022-08-21T04:36:09;97099.41;;;20.84;53.11
22580;BME280;11456;47.030;15.396;2022-08-21T04:38:35;97102.41;;;20.94;52.75
22580;BME280;11456;47.030;15.396;2022-08-21T04:41:03;97104.09;;;20.95;52.32
22580;BME280;11456;47.030;15.396;2022-08-21T04:43:31;97109.25;;;21.33;53.21
22580;BME280;11456;47.030;15.396;2022-08-21T04:45:58;97112.84;;;21.33;52.29
22580;BME280;11456;47.030;15.396;2022-08-21T04:48:26;97118.31;;;21.33;51.95
22580;BME280;11456;47.030;15.396;2022-08-21T04:51:02;97116.19;;;21.35;51.79
22580;BME280;11456;47.030;15.396;2022-08-21T04:53:40;97121.69;;;21.47;51.94
22580;BME280;11456;47.030;15.396;2022-08-21T04:56:08;97124.47;;;21.58;50.90
22580;BME280;11456;47.030;15.396;2022-08-21T04:58:36;97127.59;;;21.74;50.65
22580;BME280;11456;47.030;15.396;2022-08-21T05:01:04;97120.50;;;21.96;51.37
22580;BME280;11456;47.030;15.396;2022-08-21T05:03:33;97126.31;;;21.88;51.55
22580;BME280;11456;47.030;15.396;2022-08-21T05:06:00;97123.72;;;22.05;51.69
22580;BME280;11456;47.030;15.396;2022-08-21T05:08:29;97126.00;;;23.06;51.15
22580;BME280;11456;47.030;15.396;2022-08-21T05:10:56;97128.03;;;22.01;55.27
22580;BME280;11456;47.030;15.396;2022-08-21T05:13:26;97132.34;;;21.67;57.20
22580;BME280;11456;47.030;15.396;2022-08-21T05:15:52;97137.31;;;21.16;59.37
22580;BME280;11456;47.030;15.396;2022-08-21T05:18:19;97134.22;;;21.54;59.14
22580;BME280;11456;47.030;15.396;2022-08-21T05:20:46;97134.34;;;21.18;61.22
22580;BME280;11456;47.030;15.396;2022-08-21T05:23:13;97138.91;;;20.88;62.82
22580;BME280;11456;47.030;15.396;2022-08-21T05:25:40;97145.31;;;20.81;63.41
22580;BME280;11456;47.030;15.396;2022-08-21T05:28:07;97154.22;;;21.43;61.94
22580;BME280;11456;47.030;15.396;2022-08-21T05:30:34;97158.81;;;21.73;60.66
22580;BME280;11456;47.030;15.396;2022-08-21T05:33:02;97163.81;;;20.86;65.09
22580;BME280;11456;47.030;15.396;2022-08-21T05:35:29;97164.56;;;20.57;66.81
22580;BME280;11456;47.030;15.396;2022-08-21T05:37:56;97170.28;;;20.73;66.64
22580;BME280;11456;47.030;15.396;2022-08-21T05:40:23;97177.88;;;20.71;67.09
22580;BME280;11456;47.030;15.396;2022-08-21T05:42:50;97171.16;;;21.04;66.04
22580;BME280;11456;47.030;15.396;2022-08-21T05:45:21;97167.34;;;20.68;67.66
22580;BME280;11456;47.030;15.396;2022-08-21T05:48:08;97158.09;;;20.51;68.30
22580;BME280;11456;47.030;15.396;2022-08-21T05:50:35;97166.91;;;20.71;67.65
22580;BME280;11456;47.030;15.396;2022-08-21T05:53:04;97174.72;;;21.04;66.54
22580;BME280;11456;47.030;15.396;2022-08-21T05:55:35;97176.31;;;21.30;65.65
22580;BME280;11456;47.030;15.396;2022-08-21T05:58:08;97174.38;;;22.02;60.77
22580;BME280;11456;47.030;15.396;2022-08-21T06:00:34;97183.63;;;21.78;61.87
22580;BME280;11456;47.030;15.396;2022-08-21T06:03:01;97181.00;;;21.83;59.78
22580;BME280;11456;47.030;15.396;2022-08-21T06:05:27;97189.09;;;21.78;59.74
22580;BME280;11456;47.030;15.396;2022-08-21T06:08:03;97182.88;;;22.01;59.35
22580;BME280;11456;47.030;15.396;2022-08-21T06:10:29;97189.56;;;21.75;61.12
22580;BME280;11456;47.030;15.396;2022-08-21T06:12:56;97188.25;;;22.07;60.08
22580;BME280;11456;47.030;15.396;2022-08-21T06:15:23;97183.94;;;22.11;59.91
22580;BME280;11456;47.030;15.396;2022-08-21T06:17:49;97193.72;;;22.07;61.12
22580;BME280;11456;47.030;15.396;2022-08-21T06:20:16;97187.31;;;22.13;60.38
22580;BME280;11456;47.030;15.396;2022-08-21T06:22:42;97192.84;;;21.53;60.75
22580;BME280;11456;47.030;15.396;2022-08-21T06:25:09;97193.38;;;21.74;61.35
22580;BME280;11456;47.030;15.396;2022-08-21T06:27:36;97191.72;;;21.73;60.62
22580;BME280;11456;47.030;15.396;2022-08-21T06:30:04;97191.78;;;21.96;60.37
22580;BME280;11456;47.030;15.396;2022-08-21T06:32:31;97192.50;;;22.03;59.30
22580;BME280;11456;47.030;15.396;2022-08-21T06:34:58;97193.50;;;22.44;57.91
22580;BME280;11456;47.030;15.396;2022-08-21T06:37:25;97187.78;;;22.33;59.22
22580;BME280;11456;47.030;15.396;2022-08-21T06:39:51;97186.47;;;22.36;59.25
22580;BME280;11456;47.030;15.396;2022-08-21T06:42:18;97191.59;;;22.56;59.35
22580;BME280;11456;47.030;15.396;2022-08-21T06:44:45;97195.06;;;22.74;58.91
22580;BME280;11456;47.030;15.396;2022-08-21T06:47:11;97194.63;;;23.57;55.53
22580;BME280;11456;47.030;15.396;2022-08-21T06:49:38;97195.84;;;23.10;56.61
22580;BME280;11456;47.030;15.396;2022-08-21T06:52:09;97195.97;;;23.55;55.74
22580;BME280;11456;47.030;15.396;2022-08-21T06:54:36;97198.84;;;23.77;53.59
22580;BME280;11456;47.030;15.396;2022-08-21T06:57:03;97210.38;;;23.90;52.74
22580;BME280;11456;47.030;15.396;2022-08-21T06:59:30;97196.97;;;23.94;51.13
22580;BME280;11456;47.030;15.396;2022-08-21T07:01:58;97199.00;;;23.70;52.27
22580;BME280;11456;47.030;15.396;2022-08-21T07:04:25;97204.00;;;23.73;50.59
22580;BME280;11456;47.030;15.396;2022-08-21T07:06:52;97200.50;;;23.61;49.53
22580;BME280;11456;47.030;15.396;2022-08-21T07:09:18;97211.22;;;24.08;49.25
22580;BME280;11456;47.030;15.396;2022-08-21T07:11:51;97205.41;;;24.21;48.46
22580;BME280;11456;47.030;15.396;2022-08-21T07:14:18;97213.72;;;23.92;48.88
22580;BME280;11456;47.030;15.396;2022-08-21T07:16:46;97210.38;;;23.90;49.04
22580;BME280;11456;47.030;15.396;2022-08-21T07:19:12;97210.13;;;23.92;49.16
22580;BME280;11456;47.030;15.396;2022-08-21T07:21:39;97214.31;;;23.66;49.42
22580;BME280;11456;47.030;15.396;2022-08-21T07:24:06;97213.03;;;23.85;49.91
22580;BME280;11456;47.030;15.396;2022-08-21T07:26:32;97219.13;;;23.59;50.09
22580;BME280;11456;47.030;15.396;2022-08-21T07:28:59;97214.63;;;23.53;50.15
22580;BME280;11456;47.030;15.396;2022-08-21T07:31:25;97207.97;;;23.49;50.96
22580;BME280;11456;47.030;15.396;2022-08-21T07:33:52;97209.13;;;23.53;50.57
22580;BME280;11456;47.030;15.396;2022-08-21T07:36:19;97211.72;;;24.05;48.72
22580;BME280;11456;47.030;15.396;2022-08-21T07:38:46;97220.22;;;24.03;48.11
22580;BME280;11456;47.030;15.396;2022-08-21T07:41:14;97211.22;;;24.08;47.42
22580;BME280;11456;47.030;15.396;2022-08-21T07:43:41;97219.13;;;23.87;48.71
22580;BME280;11456;47.030;15.396;2022-08-21T07:46:11;97206.69;;;23.85;47.70
22580;BME280;11456;47.030;15.396;2022-08-21T07:48:39;97213.81;;;23.69;48.09
22580;BME280;11456;47.030;15.396;2022-08-21T07:51:07;97208.13;;;23.59;50.23
22580;BME280;11456;47.030;15.396;2022-08-21T07:53:35;97198.13;;;23.53;50.01
22580;BME280;11456;47.030;15.396;2022-08-21T07:56:02;97208.41;;;23.46;51.00
22580;BME280;11456;47.030;15.396;2022-08-21T07:58:30;97217.53;;;23.35;51.56
22580;BME280;11456;47.030;15.396;2022-08-21T08:00:58;97197.22;;;23.36;50.67
22580;BME280;11456;47.030;15.396;2022-08-21T08:03:26;97211.63;;;23.54;50.17
22580;BME280;11456;47.030;15.396;2022-08-21T08:05:55;97210.66;;;23.61;50.81
22580;BME280;11456;47.030;15.396;2022-08-21T08:08:21;97207.13;;;23.93;48.65
22580;BME280;11456;47.030;15.396;2022-08-21T08:10:48;97207.94;;;23.77;49.19
22580;BME280;11456;47.030;15.396;2022-08-21T08:13:16;97201.03;;;23.75;50.48
22580;BME280;11456;47.030;15.396;2022-08-21T08:15:42;97211.22;;;23.91;50.84
22580;BME280;11456;47.030;15.396;2022-08-21T08:18:09;97202.88;;;24.03;48.67
22580;BME280;11456;47.030;15.396;2022-08-21T08:20:35;97200.81;;;23.93;48.31
22580;BME280;11456;47.030;15.396;2022-08-21T08:23:02;97211.22;;;24.08;48.04
22580;BME280;11456;47.030;15.396;2022-08-21T08:25:29;97211.88;;;24.15;47.79
22580;BME280;11456;47.030;15.396;2022-08-21T08:28:01;97192.56;;;23.93;48.72
22580;BME280;11456;47.030;15.396;2022-08-21T08:30:32;97201.41;;;24.12;48.66
22580;BME280;11456;47.030;15.396;2022-08-21T08:32:59;97200.06;;;24.14;48.83
22580;BME280;11456;47.030;15.396;2022-08-21T08:35:26;97203.75;;;24.53;47.98
22580;BME280;11456;47.030;15.396;2022-08-21T08:37:56;97196.91;;;24.56;46.50
22580;BME280;11456;47.030;15.396;2022-08-21T08:43:08;97199.56;;;24.17;48.45
22580;BME280;11456;47.030;15.396;2022-08-21T08:45:40;97197.44;;;24.19;48.38
22580;BME280;11456;47.030;15.396;2022-08-21T08:48:10;97205.03;;;24.01;47.68
22580;BME280;11456;47.030;15.396;2022-08-21T08:53:57;97206.56;;;24.58;47.40
22580;BME280;11456;47.030;15.396;2022-08-21T08:56:34;97206.38;;;24.82;46.68
22580;BME280;11456;47.030;15.396;2022-08-21T08:59:21;97204.53;;;24.87;46.33
22580;BME280;11456;47.030;15.396;2022-08-21T09:01:49;97205.38;;;24.88;45.63
22580;BME280;11456;47.030;15.396;2022-08-21T09:04:19;97206.31;;;25.15;46.46
22580;BME280;11456;47.030;15.396;2022-08-21T09:06:51;97202.78;;;24.98;48.09
22580;BME280;11456;47.030;15.396;2022-08-21T09:14:30;97212.41;;;25.61;47.36
22580;BME280;11456;47.030;15.396;2022-08-21T09:22:15;97206.00;;;25.33;49.25
22580;BME280;11456;47.030;15.396;2022-08-21T09:24:50;97197.84;;;25.43;48.99
22580;BME280;11456;47.030;15.396;2022-08-21T09:27:18;97191.69;;;25.36;49.89
22580;BME280;11456;47.030;15.396;2022-08-21T09:29:46;97192.91;;;25.24;49.81
22580;BME280;11456;47.030;15.396;2022-08-21T09:32:18;97188.13;;;25.14;49.68
22580;BME280;11456;47.030;15.396;2022-08-21T09:35:05;97189.50;;;24.56;49.84
22580;BME280;11456;47.030;15.396;2022-08-21T09:37:33;97182.94;;;24.96;48.54
22580;BME280;11456;47.030;15.396;2022-08-21T09:40:01;97176.25;;;24.75;47.99
22580;BME280;11456;47.030;15.396;2022-08-21T09:42:30;97179.22;;;24.52;50.16
22580;BME280;11456;47.030;15.396;2022-08-21T09:45:10;97172.72;;;24.41;51.22
22580;BME280;11456;47.030;15.396;2022-08-21T09:47:37;97174.34;;;24.75;51.31
22580;BME280;11456;47.030;15.396;2022-08-21T09:50:08;97170.88;;;24.63;50.93
22580;BME280;11456;47.030;15.396;2022-08-21T09:52:41;97162.06;;;24.45;51.62
22580;BME280;11456;47.030;15.396;2022-08-21T09:55:08;97166.91;;;24.38;49.72
22580;BME280;11456;47.030;15.396;2022-08-21T09:58:01;97165.72;;;24.17;48.41
22580;BME280;11456;47.030;15.396;2022-08-21T10:00:29;97163.47;;;24.47;47.12
22580;BME280;11456;47.030;15.396;2022-08-21T10:03:16;97168.41;;;23.38;49.94
22580;BME280;11456;47.030;15.396;2022-08-21T10:05:50;97160.69;;;23.80;49.50
22580;BME280;11456;47.030;15.396;2022-08-21T10:08:20;97160.22;;;24.33;48.41
22580;BME280;11456;47.030;15.396;2022-08-21T10:10:50;97160.28;;;24.05;48.18
22580;BME280;11456;47.030;15.396;2022-08-21T10:13:28;97159.94;;;24.52;47.86
22580;BME280;11456;47.030;15.396;2022-08-21T10:34:07;97149.09;;;26.71;42.84
22580;BME280;11456;47.030;15.396;2022-08-21T10:36:41;97147.97;;;27.20;42.12
22580;BME280;11456;47.030;15.396;2022-08-21T10:47:04;97140.97;;;26.97;42.47
22580;BME280;11456;47.030;15.396;2022-08-21T10:52:09;97122.97;;;27.92;40.80
22580;BME280;11456;47.030;15.396;2022-08-21T10:54:46;97124.38;;;27.95;41.33
22580;BME280;11456;47.030;15.396;2022-08-21T11:00:08;97132.09;;;27.62;41.67
22580;BME280;11456;47.030;15.396;2022-08-21T11:02:41;97123.69;;;27.37;42.24
22580;BME280;11456;47.030;15.396;2022-08-21T11:05:12;97126.41;;;27.22;41.85
22580;BME280;11456;47.030;15.396;2022-08-21T11:07:43;97127.97;;;26.92;40.94
22580;BME280;11456;47.030;15.396;2022-08-21T11:10:24;97125.56;;;26.64;41.82
22580;BME280;11456;47.030;15.396;2022-08-21T11:13:02;97130.69;;;26.13;43.90
22580;BME280;11456;47.030;15.396;2022-08-21T11:15:36;97135.38;;;27.54;39.83
22580;BME280;11456;47.030;15.396;2022-08-21T11:18:09;97127.16;;;27.95;39.74
22580;BME280;11456;47.030;15.396;2022-08-21T11:20:43;97120.22;;;28.12;38.32
22580;BME280;11456;47.030;15.396;2022-08-21T11:23:17;97125.28;;;27.12;42.53
22580;BME280;11456;47.030;15.396;2022-08-21T11:25:52;97113.84;;;28.52;39.08
22580;BME280;11456;47.030;15.396;2022-08-21T11:28:24;97122.22;;;28.22;39.37
22580;BME280;11456;47.030;15.396;2022-08-21T11:35:59;97116.63;;;28.37;39.94
22580;BME280;11456;47.030;15.396;2022-08-21T11:38:40;97123.47;;;26.86;42.15
22580;BME280;11456;47.030;15.396;2022-08-21T11:43:52;97105.53;;;28.57;38.73
22580;BME280;11456;47.030;15.396;2022-08-21T11:46:44;97115.78;;;27.86;38.65
22580;BME280;11456;47.030;15.396;2022-08-21T11:56:50;97110.28;;;26.98;41.35
22580;BME280;11456;47.030;15.396;2022-08-21T11:59:20;97111.75;;;27.16;41.79
22580;BME280;11456;47.030;15.396;2022-08-21T12:01:50;97104.44;;;27.57;40.80
22580;BME280;11456;47.030;15.396;2022-08-21T12:06:54;97099.47;;;28.10;39.28
22580;BME280;11456;47.030;15.396;2022-08-21T12:12:10;97100.00;;;27.56;39.44
22580;BME280;11456;47.030;15.396;2022-08-21T12:14:42;97096.69;;;28.30;39.16
22580;BME280;11456;47.030;15.396;2022-08-21T12:17:16;97107.41;;;27.50;41.60
22580;BME280;11456;47.030;15.396;2022-08-21T12:19:56;97086.19;;;27.97;40.86
22580;BME280;11456;47.030;15.396;2022-08-21T12:22:24;97091.16;;;28.45;38.65
22580;BME280;11456;47.030;15.396;2022-08-21T12:25:09;97097.56;;;26.97;40.09
22580;BME280;11456;47.030;15.396;2022-08-21T12:27:44;97100.03;;;27.76;39.05
22580;BME280;11456;47.030;15.396;2022-08-21T12:32:55;97089.94;;;27.20;40.12
22580;BME280;11456;47.030;15.396;2022-08-21T12:35:27;97092.75;;;27.50;39.20
22580;BME280;11456;47.030;15.396;2022-08-21T12:40:43;97090.84;;;27.61;39.51
22580;BME280;11456;47.030;15.396;2022-08-21T12:43:16;97090.03;;;27.60;39.95
22580;BME280;11456;47.030;15.396;2022-08-21T12:45:45;97085.91;;;27.88;38.61
22580;BME280;11456;47.030;15.396;2022-08-21T12:48:15;97083.38;;;27.66;40.05
22580;BME280;11456;47.030;15.396;2022-08-21T12:50:50;97075.38;;;28.05;38.90
22580;BME280;11456;47.030;15.396;2022-08-21T12:53:25;97079.22;;;28.45;38.99
22580;BME280;11456;47.030;15.396;2022-08-21T12:55:53;97087.75;;;27.37;40.47
22580;BME280;11456;47.030;15.396;2022-08-21T12:58:25;97086.19;;;27.81;39.11
22580;BME280;11456;47.030;15.396;2022-08-21T13:01:02;97085.06;;;27.87;38.67
22580;BME280;11456;47.030;15.396;2022-08-21T13:03:30;97084.75;;;27.53;39.52
22580;BME280;11456;47.030;15.396;2022-08-21T13:05:58;97086.16;;;27.61;39.06
22580;BME280;11456;47.030;15.396;2022-08-21T13:08:25;97100.78;;;26.79;40.40
22580;BME280;11456;47.030;15.396;2022-08-21T13:10:57;97096.41;;;27.66;39.47
22580;BME280;11456;47.030;15.396;2022-08-21T13:13:36;97099.63;;;27.32;39.55
22580;BME280;11456;47.030;15.396;2022-08-21T13:16:12;97100.56;;;27.58;38.26
22580;BME280;11456;47.030;15.396;2022-08-21T13:18:51;97090.03;;;27.60;38.66
22580;BME280;11456;47.030;15.396;2022-08-21T13:21:26;97092.50;;;26.00;41.11
22580;BME280;11456;47.030;15.396;2022-08-21T13:23:53;97097.41;;;26.67;40.64
22580;BME280;11456;47.030;15.396;2022-08-21T13:26:20;97095.31;;;26.89;40.51
22580;BME280;11456;47.030;15.396;2022-08-21T13:28:48;97104.19;;;26.96;40.53
22580;BME280;11456;47.030;15.396;2022-08-21T13:31:20;97104.59;;;26.68;40.59
22580;BME280;11456;47.030;15.396;2022-08-21T13:33:48;97103.72;;;26.20;41.36
22580;BME280;11456;47.030;15.396;2022-08-21T13:36:19;97110.91;;;25.58;42.12
22580;BME280;11456;47.030;15.396;2022-08-21T13:38:46;97107.94;;;25.64;42.80
22580;BME280;11456;47.030;15.396;2022-08-21T13:43:48;97113.13;;;25.12;43.89
22580;BME280;11456;47.030;15.396;2022-08-21T13:46:15;97111.81;;;25.68;43.11
22580;BME280;11456;47.030;15.396;2022-08-21T13:48:43;97115.81;;;26.14;41.84
22580;BME280;11456;47.030;15.396;2022-08-21T13:51:10;97115.66;;;26.31;41.15
22580;BME280;11456;47.030;15.396;2022-08-21T13:56:06;97126.06;;;25.87;41.98
22580;BME280;11456;47.030;15.396;2022-08-21T13:58:41;97114.22;;;26.23;41.17
22580;BME280;11456;47.030;15.396;2022-08-21T14:01:17;97125.75;;;25.83;41.97
22580;BME280;11456;47.030;15.396;2022-08-21T14:03:45;97105.44;;;25.63;42.41
22580;BME280;11456;47.030;15.396;2022-08-21T14:06:18;97110.69;;;25.96;41.83
22580;BME280;11456;47.030;15.396;2022-08-21T14:08:51;97112.03;;;25.62;42.58
22580;BME280;11456;47.030;15.396;2022-08-21T14:11:19;97114.13;;;24.62;44.61
22580;BME280;11456;47.030;15.396;2022-08-21T14:13:49;97113.13;;;25.12;44.05
22580;BME280;11456;47.030;15.396;2022-08-21T14:16:26;97119.03;;;26.06;42.37
22580;BME280;11456;47.030;15.396;2022-08-21T14:19:07;97117.47;;;26.15;42.01
22580;BME280;11456;47.030;15.396;2022-08-21T14:21:35;97117.09;;;25.48;43.26